Terminal Aerodrome Forecast
Issued by NWS

Home | Current Version | Previous Version | Text Only | Print | Product List | Glossary On
Versions: 1 2 3 4 5 6 7 8 9 10 11 12 13 14 15
000
FTUS43 KOAX 021951 AAA
TAFBFF
TAF AMD
KBFF 021951Z 0220/0318 12007KT P6SM VCTS BKN120CB
     FM022030 01022G37KT P6SM -TSRA BKN100CB
     FM022200 02007KT P6SM VCTS BKN120CB
     FM030100 09006KT P6SM SCT150=

USA.gov is the U.S. government's official web portal to all federal, state and local government web resources and services.